createdAt,value
2022-12-17T00:00:41.022Z,101656.10
2022-12-17T00:03:30.128Z,101659.05
2022-12-17T00:06:18.682Z,101665.45
2022-12-17T00:09:07.318Z,101667.73
2022-12-17T00:11:56.158Z,101672.44
2022-12-17T00:14:44.664Z,101670.67
2022-12-17T00:17:33.077Z,101673.76
2022-12-17T00:20:22.485Z,101678.15
2022-12-17T00:23:23.143Z,101678.97
2022-12-17T00:26:15.352Z,101678.29
2022-12-17T00:29:01.986Z,101684.30
2022-12-17T00:32:07.058Z,101686.44
2022-12-17T00:34:55.356Z,101686.64
2022-12-17T00:37:45.691Z,101683.69
2022-12-17T00:40:44.645Z,101691.92
2022-12-17T00:43:33.802Z,101695.23
2022-12-17T00:46:21.227Z,101696.88
2022-12-17T00:49:09.658Z,101695.23
2022-12-17T00:51:58.628Z,101698.70
2022-12-17T00:54:47.019Z,101702.58
2022-12-17T00:57:35.363Z,101701.85
2022-12-17T01:00:25.088Z,101708.08
2022-12-17T01:03:23.525Z,101709.04
2022-12-17T01:06:11.414Z,101713.29
2022-12-17T01:09:00.058Z,101719.77
2022-12-17T01:11:49.023Z,101724.77
2022-12-17T01:14:37.665Z,101729.39
2022-12-17T01:17:25.925Z,101729.86
2022-12-17T01:20:14.810Z,101733.17
2022-12-17T01:23:04.737Z,101736.30
2022-12-17T01:25:53.236Z,101735.38
2022-12-17T01:28:46.248Z,101740.84
2022-12-17T01:31:35.525Z,101742.23
2022-12-17T01:34:24.383Z,101745.25
2022-12-17T01:37:12.979Z,101741.67
2022-12-17T01:40:01.597Z,101738.54
2022-12-17T01:43:03.610Z,101737.64
2022-12-17T01:46:25.057Z,101742.51
2022-12-17T01:49:13.944Z,101742.86
2022-12-17T01:52:02.682Z,101750.64
2022-12-17T01:54:51.360Z,101751.26
2022-12-17T01:57:39.931Z,101754.16
2022-12-17T02:00:32.824Z,101756.42
2022-12-17T02:03:22.662Z,101755.83
2022-12-17T02:06:43.786Z,101748.75
2022-12-17T02:10:06.445Z,101756.80
2022-12-17T02:13:09.640Z,101760.20
2022-12-17T02:16:39.788Z,101761.98
2022-12-17T02:20:04.464Z,101757.10
2022-12-17T02:23:39.883Z,101752.67
2022-12-17T02:26:54.591Z,101752.70
2022-12-17T02:29:47.677Z,101754.17
2022-12-17T02:32:37.635Z,101753.05
2022-12-17T02:35:34.639Z,101758.14
2022-12-17T02:38:43.573Z,101756.07
2022-12-17T02:42:03.879Z,101759.35
2022-12-17T02:44:55.381Z,101765.02
2022-12-17T02:47:44.765Z,101769.49
2022-12-17T02:50:33.718Z,101774.25
2022-12-17T02:53:23.003Z,101777.61
2022-12-17T02:56:12.118Z,101779.26
2022-12-17T02:59:00.761Z,101779.01
2022-12-17T03:01:49.862Z,101783.05
2022-12-17T03:09:54.241Z,101789.11
2022-12-17T03:12:42.570Z,101793.14
2022-12-17T03:15:30.980Z,101789.29
2022-12-17T03:18:19.418Z,101794.50
2022-12-17T03:21:12.413Z,101796.81
2022-12-17T03:24:00.336Z,101796.56
2022-12-17T03:26:50.077Z,101797.67
2022-12-17T03:29:38.236Z,101803.89
2022-12-17T03:32:26.782Z,101804.40
2022-12-17T03:35:15.341Z,101808.05
2022-12-17T03:38:17.468Z,101810.83
2022-12-17T03:41:09.582Z,101812.98
2022-12-17T03:43:58.253Z,101816.81
2022-12-17T03:46:47.147Z,101817.95
2022-12-17T03:49:35.542Z,101822.39
2022-12-17T03:52:23.984Z,101829.04
2022-12-17T03:55:12.435Z,101835.88
2022-12-17T03:58:01.076Z,101836.19
2022-12-17T04:00:50.056Z,101837.44
2022-12-17T04:03:39.159Z,101841.07
2022-12-17T04:06:28.136Z,101839.50
2022-12-17T04:09:16.596Z,101838.09
2022-12-17T04:12:04.543Z,101844.64
2022-12-17T04:14:52.974Z,101849.20
2022-12-17T04:17:41.592Z,101852.15
2022-12-17T04:20:30.923Z,101854.08
2022-12-17T04:23:19.358Z,101864.27
2022-12-17T04:26:08.015Z,101868.41
2022-12-17T04:28:53.402Z,101869.86
2022-12-17T04:31:42.360Z,101869.27
2022-12-17T04:34:31.023Z,101872.30
2022-12-17T04:37:19.587Z,101873.03
2022-12-17T04:40:07.907Z,101874.15
2022-12-17T04:42:56.498Z,101873.45
2022-12-17T04:45:44.707Z,101875.20
2022-12-17T04:48:33.606Z,101876.09
2022-12-17T04:51:21.975Z,101882.46
2022-12-17T04:54:07.571Z,101887.15
2022-12-17T04:56:55.887Z,101888.28
2022-12-17T04:59:41.518Z,101887.09
2022-12-17T05:02:27.276Z,101886.77
2022-12-17T05:05:15.984Z,101887.09
2022-12-17T05:08:04.929Z,101887.52
2022-12-17T05:10:53.302Z,101891.98
2022-12-17T05:13:42.223Z,101894.06
2022-12-17T05:16:31.283Z,101896.03
2022-12-17T05:19:19.738Z,101900.23
2022-12-17T05:22:08.436Z,101899.96
2022-12-17T05:24:57.098Z,101905.11
2022-12-17T05:27:45.536Z,101905.04
2022-12-17T05:30:34.252Z,101905.61
2022-12-17T05:33:23.056Z,101907.23
2022-12-17T05:36:09.685Z,101908.70
2022-12-17T05:38:58.421Z,101916.89
2022-12-17T05:41:46.923Z,101913.59
2022-12-17T05:44:35.358Z,101919.63
2022-12-17T05:47:24.724Z,101922.63
2022-12-17T05:50:13.048Z,101927.30
2022-12-17T05:53:00.008Z,101931.56
2022-12-17T05:55:48.429Z,101942.56
2022-12-17T05:58:37.106Z,101949.63
2022-12-17T06:01:25.762Z,101949.63
2022-12-17T06:04:14.236Z,101952.45
2022-12-17T06:07:02.760Z,101948.66
2022-12-17T06:09:51.384Z,101953.70
2022-12-17T06:12:39.488Z,101959.02
2022-12-17T06:15:28.883Z,101958.77
2022-12-17T06:18:17.442Z,101967.14
2022-12-17T06:21:06.029Z,101969.64
2022-12-17T06:23:54.310Z,101975.83
2022-12-17T06:26:42.964Z,101973.38
2022-12-17T06:29:31.355Z,101979.69
2022-12-17T06:32:24.259Z,101976.27
2022-12-17T06:35:09.775Z,101980.37
2022-12-17T06:37:56.048Z,101987.09
2022-12-17T06:40:44.713Z,101986.28
2022-12-17T06:43:34.066Z,101991.04
2022-12-17T06:46:22.694Z,101996.66
2022-12-17T06:49:11.061Z,101999.14
2022-12-17T06:51:59.380Z,102000.98
2022-12-17T06:54:48.826Z,102007.66
2022-12-17T06:57:40.824Z,102011.59
2022-12-17T07:00:33.995Z,102020.16
2022-12-17T07:03:22.961Z,102028.33
2022-12-17T07:06:11.613Z,102035.67
2022-12-17T07:09:00.332Z,102039.59
2022-12-17T07:11:48.378Z,102041.02
2022-12-17T07:14:35.152Z,102051.18
2022-12-17T07:17:25.219Z,102051.77
2022-12-17T07:20:12.177Z,102053.65
2022-12-17T07:23:00.594Z,102061.98
2022-12-17T07:25:49.281Z,102063.70
2022-12-17T07:28:37.800Z,102068.66
2022-12-17T07:31:26.121Z,102072.09
2022-12-17T07:34:14.407Z,102076.56
2022-12-17T07:37:02.828Z,102081.31
2022-12-17T07:39:51.353Z,102084.07
2022-12-17T07:42:39.976Z,102088.71
2022-12-17T07:45:28.840Z,102090.15
2022-12-17T07:48:16.920Z,102089.79
2022-12-17T07:51:09.366Z,102092.21
2022-12-17T07:53:57.837Z,102097.66
2022-12-17T07:56:46.552Z,102102.14
2022-12-17T07:59:33.034Z,102111.41
2022-12-17T08:02:21.633Z,102119.56
2022-12-17T08:05:10.228Z,102121.42
2022-12-17T08:07:58.766Z,102123.64
2022-12-17T08:10:47.107Z,102127.50
2022-12-17T08:13:35.990Z,102131.84
2022-12-17T08:16:25.485Z,102128.52
2022-12-17T08:19:13.851Z,102128.50
2022-12-17T08:22:02.321Z,102131.16
2022-12-17T08:24:50.741Z,102132.38
2022-12-17T08:27:38.984Z,102131.39
2022-12-17T08:30:28.446Z,102128.12
2022-12-17T08:33:24.764Z,102133.26
2022-12-17T08:36:14.783Z,102132.70
2022-12-17T08:39:04.143Z,102138.64
2022-12-17T08:41:54.879Z,102145.11
2022-12-17T08:44:45.098Z,102146.84
2022-12-17T08:47:33.915Z,102145.33
2022-12-17T08:50:24.286Z,102151.64
2022-12-17T08:53:21.270Z,102152.40
2022-12-17T08:56:09.610Z,102150.56
2022-12-17T08:58:59.414Z,102155.16
2022-12-17T09:01:48.074Z,102161.58
2022-12-17T09:04:36.868Z,102165.03
2022-12-17T09:07:25.488Z,102172.73
2022-12-17T09:10:14.044Z,102172.19
2022-12-17T09:13:04.997Z,102170.62
2022-12-17T09:15:54.184Z,102172.20
2022-12-17T09:18:41.805Z,102174.25
2022-12-17T09:21:30.074Z,102180.23
2022-12-17T09:24:18.787Z,102179.09
2022-12-17T09:27:07.245Z,102178.66
2022-12-17T09:29:55.514Z,102179.84
2022-12-17T09:32:43.554Z,102176.97
2022-12-17T09:35:32.246Z,102179.72
2022-12-17T09:38:20.956Z,102185.83
2022-12-17T09:41:10.774Z,102185.21
2022-12-17T09:44:40.701Z,102183.92
2022-12-17T09:47:51.921Z,102184.66
2022-12-17T09:50:40.681Z,102186.10
2022-12-17T09:53:40.568Z,102184.54
2022-12-17T09:56:33.948Z,102187.52
2022-12-17T09:59:22.653Z,102195.31
2022-12-17T10:02:11.684Z,102197.35
2022-12-17T10:05:04.507Z,102197.81
2022-12-17T10:07:56.046Z,102201.33
2022-12-17T10:10:51.414Z,102203.71
2022-12-17T10:13:42.246Z,102202.13
2022-12-17T10:16:52.515Z,102204.74
2022-12-17T10:20:00.597Z,102211.28
2022-12-17T10:22:49.106Z,102211.84
2022-12-17T10:25:41.630Z,102209.20
2022-12-17T10:28:40.664Z,102213.60
2022-12-17T10:31:37.780Z,102221.42
2022-12-17T10:34:33.971Z,102231.77
2022-12-17T10:37:21.484Z,102225.65
2022-12-17T10:40:18.607Z,102228.28
2022-12-17T10:43:06.935Z,102228.04
2022-12-17T10:45:55.547Z,102229.11
2022-12-17T10:48:47.554Z,102232.98
2022-12-17T10:51:57.190Z,102234.45
2022-12-17T10:54:52.086Z,102237.73
2022-12-17T10:57:56.500Z,102241.92
2022-12-17T11:00:54.503Z,102245.29
2022-12-17T11:04:05.948Z,102246.84
2022-12-17T11:07:01.656Z,102247.05
2022-12-17T11:10:17.146Z,102247.14
2022-12-17T11:13:15.771Z,102248.24
2022-12-17T11:16:13.218Z,102251.06
2022-12-17T11:19:22.966Z,102248.16
2022-12-17T11:22:22.004Z,102246.97
2022-12-17T11:25:34.542Z,102246.30
2022-12-17T11:28:36.986Z,102249.41
2022-12-17T11:31:37.532Z,102252.45
2022-12-17T11:34:52.305Z,102259.06
2022-12-17T11:37:56.292Z,102260.98
2022-12-17T11:41:02.440Z,102262.49
2022-12-17T11:44:01.630Z,102269.08
2022-12-17T11:47:35.656Z,102268.90
2022-12-17T11:50:53.549Z,102278.86
2022-12-17T11:54:09.076Z,102276.73
2022-12-17T11:57:06.103Z,102278.25
2022-12-17T12:00:07.633Z,102287.14
2022-12-17T12:03:02.422Z,102284.23
2022-12-17T12:06:08.364Z,102284.21
2022-12-17T12:09:27.393Z,102278.75
2022-12-17T12:12:36.894Z,102281.09
2022-12-17T12:15:55.435Z,102279.00
2022-12-17T12:19:13.487Z,102278.53
2022-12-17T12:22:30.916Z,102281.32
2022-12-17T12:25:39.770Z,102279.55
2022-12-17T12:28:47.842Z,102282.89
2022-12-17T12:31:58.203Z,102289.55
2022-12-17T12:34:53.867Z,102295.64
2022-12-17T12:37:42.481Z,102300.20
2022-12-17T12:40:56.818Z,102305.86
2022-12-17T12:43:51.414Z,102311.23
2022-12-17T12:47:19.433Z,102317.83
2022-12-17T12:50:30.191Z,102314.87
2022-12-17T12:53:18.882Z,102319.34
2022-12-17T12:56:04.599Z,102325.72
2022-12-17T12:58:53.745Z,102324.45
2022-12-17T13:01:54.155Z,102324.59
2022-12-17T13:04:54.608Z,102328.39
2022-12-17T13:07:29.010Z,102331.44
2022-12-17T13:09:59.474Z,102333.21
2022-12-17T13:12:45.451Z,102338.24
2022-12-17T13:15:31.584Z,102335.26
2022-12-17T13:18:28.284Z,102333.46
2022-12-17T13:21:25.394Z,102331.77
2022-12-17T13:23:55.789Z,102335.11
2022-12-17T13:26:39.647Z,102335.12
2022-12-17T13:29:24.309Z,102336.52
2022-12-17T13:32:09.047Z,102340.77
2022-12-17T13:34:58.031Z,102345.03
2022-12-17T13:37:59.796Z,102343.33
2022-12-17T13:41:09.359Z,102351.86
2022-12-17T13:43:49.602Z,102351.44
2022-12-17T13:46:30.353Z,102353.45
2022-12-17T13:49:16.246Z,102353.91
2022-12-17T13:51:46.533Z,102361.63
2022-12-17T13:54:19.658Z,102373.34
2022-12-17T13:56:49.567Z,102373.46
2022-12-17T13:59:24.071Z,102378.94
2022-12-17T14:01:54.568Z,102381.72
2022-12-17T14:04:29.053Z,102385.26
2022-12-17T14:07:03.298Z,102388.59
2022-12-17T14:09:43.615Z,102390.67
2022-12-17T14:12:24.017Z,102393.05
2022-12-17T14:15:00.360Z,102400.13
2022-12-17T14:17:29.735Z,102401.45
2022-12-17T14:20:06.355Z,102404.63
2022-12-17T14:22:51.128Z,102408.58
2022-12-17T14:25:34.317Z,102409.20
2022-12-17T14:28:29.499Z,102409.02
2022-12-17T14:31:29.808Z,102408.58
2022-12-17T14:34:11.222Z,102408.98
2022-12-17T14:36:44.018Z,102409.67
2022-12-17T14:39:29.933Z,102409.81
2022-12-17T14:42:31.041Z,102407.61
2022-12-17T14:45:06.908Z,102410.39
2022-12-17T14:47:37.957Z,102415.20
2022-12-17T14:50:13.748Z,102418.69
2022-12-17T14:52:57.750Z,102421.38
2022-12-17T14:55:57.302Z,102430.52
2022-12-17T14:58:28.007Z,102435.33
2022-12-17T15:01:13.796Z,102443.20
2022-12-17T15:03:46.758Z,102440.66
2022-12-17T15:06:20.631Z,102438.21
2022-12-17T15:08:53.190Z,102440.86
2022-12-17T15:11:23.107Z,102446.40
2022-12-17T15:13:56.048Z,102446.20
2022-12-17T15:16:27.147Z,102447.05
2022-12-17T15:18:56.972Z,102446.02
2022-12-17T15:21:27.465Z,102448.80
2022-12-17T15:23:55.262Z,102448.77
2022-12-17T15:26:23.547Z,102452.81
2022-12-17T15:28:52.127Z,102460.25
2022-12-17T15:31:24.611Z,102465.12
2022-12-17T15:33:55.650Z,102472.27
2022-12-17T15:36:25.508Z,102471.00
2022-12-17T15:38:55.260Z,102472.42
2022-12-17T15:41:44.171Z,102476.52
2022-12-17T15:44:13.888Z,102479.10
2022-12-17T15:46:43.726Z,102483.25
2022-12-17T15:49:14.158Z,102484.16
2022-12-17T15:51:43.865Z,102487.54
2022-12-17T15:54:13.616Z,102489.14
2022-12-17T15:56:52.097Z,102490.91
2022-12-17T15:59:22.428Z,102488.23
2022-12-17T16:01:52.495Z,102486.11
2022-12-17T16:04:25.216Z,102484.69
2022-12-17T16:06:55.212Z,102488.29
2022-12-17T16:09:27.046Z,102495.23
2022-12-17T16:11:57.892Z,102498.86
2022-12-17T16:14:27.827Z,102495.87
2022-12-17T16:16:57.637Z,102496.44
2022-12-17T16:19:27.433Z,102497.69
2022-12-17T16:21:57.320Z,102494.23
2022-12-17T16:24:27.463Z,102495.36
2022-12-17T16:27:04.101Z,102505.70
2022-12-17T16:29:34.592Z,102503.73
2022-12-17T16:32:04.985Z,102503.95
2022-12-17T16:34:34.939Z,102506.84
2022-12-17T16:37:06.817Z,102502.80
2022-12-17T16:39:36.800Z,102499.48
2022-12-17T16:42:11.386Z,102504.92
2022-12-17T16:44:38.657Z,102509.98
2022-12-17T16:47:09.897Z,102511.05
2022-12-17T16:49:39.716Z,102509.97
2022-12-17T16:52:09.520Z,102515.21
2022-12-17T16:54:39.399Z,102519.36
2022-12-17T16:57:09.192Z,102520.04
2022-12-17T16:59:39.079Z,102517.92
2022-12-17T17:02:15.554Z,102519.44
2022-12-17T17:04:45.599Z,102519.90
2022-12-17T17:07:15.491Z,102522.19
2022-12-17T17:09:45.687Z,102525.63
2022-12-17T17:12:16.374Z,102530.88
2022-12-17T17:14:46.366Z,102533.50
2022-12-17T17:17:16.150Z,102533.29
2022-12-17T17:19:46.048Z,102531.02
2022-12-17T17:22:15.786Z,102533.36
2022-12-17T17:24:45.455Z,102531.92
2022-12-17T17:27:15.229Z,102531.48
2022-12-17T17:29:45.092Z,102536.20
2022-12-17T17:32:14.151Z,102543.88
2022-12-17T17:34:42.131Z,102549.05
2022-12-17T17:37:10.634Z,102554.10
2022-12-17T17:39:38.692Z,102558.29
2022-12-17T17:42:09.452Z,102560.90
2022-12-17T17:44:38.420Z,102561.64
2022-12-17T17:47:07.170Z,102559.13
2022-12-17T17:49:35.388Z,102564.23
2022-12-17T17:52:11.820Z,102564.50
2022-12-17T17:54:42.076Z,102563.32
2022-12-17T17:57:11.844Z,102561.50
2022-12-17T17:59:40.519Z,102560.35
2022-12-17T18:02:11.115Z,102564.16
2022-12-17T18:04:40.293Z,102567.75
2022-12-17T18:07:24.926Z,102570.45
2022-12-17T18:09:56.313Z,102571.00
2022-12-17T18:12:44.780Z,102576.48
2022-12-17T18:15:16.195Z,102577.96
2022-12-17T18:17:51.342Z,102583.17
2022-12-17T18:20:21.384Z,102584.45
2022-12-17T18:22:51.193Z,102585.94
2022-12-17T18:25:20.975Z,102588.57
2022-12-17T18:27:54.125Z,102588.11
2022-12-17T18:30:24.010Z,102586.69
2022-12-17T18:32:55.369Z,102584.98
2022-12-17T18:35:25.277Z,102586.30
2022-12-17T18:37:55.097Z,102590.88
2022-12-17T18:40:30.149Z,102592.57
2022-12-17T18:43:21.323Z,102593.70
2022-12-17T18:45:52.905Z,102598.65
2022-12-17T18:48:22.809Z,102606.23
2022-12-17T18:50:52.605Z,102605.55
2022-12-17T18:53:22.451Z,102607.77
2022-12-17T18:55:52.155Z,102612.48
2022-12-17T18:58:21.960Z,102609.52
2022-12-17T19:00:51.960Z,102612.44
2022-12-17T19:03:23.121Z,102616.60
2022-12-17T19:05:54.490Z,102627.86
2022-12-17T19:08:24.276Z,102629.80
2022-12-17T19:10:54.097Z,102630.84
2022-12-17T19:13:24.037Z,102629.05
2022-12-17T19:15:53.936Z,102632.80
2022-12-17T19:18:23.963Z,102639.82
2022-12-17T19:20:58.554Z,102642.48
2022-12-17T19:23:33.404Z,102649.45
2022-12-17T19:26:16.681Z,102650.42
2022-12-17T19:28:47.277Z,102651.03
2022-12-17T19:31:17.405Z,102650.58
2022-12-17T19:33:48.185Z,102656.66
2022-12-17T19:36:25.219Z,102655.19
2022-12-17T19:39:02.880Z,102660.59
2022-12-17T19:41:33.452Z,102658.14
2022-12-17T19:44:07.355Z,102664.40
2022-12-17T19:46:37.094Z,102670.48
2022-12-17T19:49:08.496Z,102665.73
2022-12-17T19:51:40.422Z,102668.36
2022-12-17T19:54:13.707Z,102667.79
2022-12-17T19:56:45.209Z,102671.98
2022-12-17T19:59:14.960Z,102676.42
2022-12-17T20:01:48.993Z,102677.47
2022-12-17T20:04:18.825Z,102680.51
2022-12-17T20:06:48.713Z,102680.02
2022-12-17T20:09:18.526Z,102687.31
2022-12-17T20:11:48.283Z,102688.45
2022-12-17T20:14:26.473Z,102687.63
2022-12-17T20:16:59.928Z,102689.46
2022-12-17T20:19:33.215Z,102693.77
2022-12-17T20:22:05.516Z,102692.11
2022-12-17T20:24:37.350Z,102692.23
2022-12-17T20:27:08.025Z,102692.90
2022-12-17T20:29:37.818Z,102691.40
2022-12-17T20:32:07.742Z,102692.36
2022-12-17T20:34:37.541Z,102700.30
2022-12-17T20:37:07.332Z,102697.52
2022-12-17T20:39:37.275Z,102702.54
2022-12-17T20:42:10.440Z,102704.13
2022-12-17T20:44:40.269Z,102704.20
2022-12-17T20:47:10.790Z,102708.88
2022-12-17T20:49:41.539Z,102704.48
2022-12-17T20:52:10.376Z,102709.94
2022-12-17T20:54:40.258Z,102707.41
2022-12-17T20:57:10.189Z,102712.06
2022-12-17T20:59:39.978Z,102719.17
2022-12-17T21:02:10.639Z,102723.27
2022-12-17T21:04:40.701Z,102719.13
2022-12-17T21:07:10.569Z,102714.34
2022-12-17T21:09:40.454Z,102716.92
2022-12-17T21:12:15.266Z,102718.52
2022-12-17T21:14:44.256Z,102716.73
2022-12-17T21:17:15.046Z,102725.10
2022-12-17T21:19:42.440Z,102723.10
2022-12-17T21:22:10.797Z,102726.02
2022-12-17T21:24:39.250Z,102730.28
2022-12-17T21:27:14.275Z,102727.83
2022-12-17T21:29:44.653Z,102729.81
2022-12-17T21:32:14.367Z,102737.28
2022-12-17T21:34:44.248Z,102738.99
2022-12-17T21:37:14.058Z,102735.84
2022-12-17T21:39:44.451Z,102738.58
2022-12-17T21:42:33.984Z,102745.69
2022-12-17T21:45:04.512Z,102750.98
2022-12-17T21:47:34.431Z,102755.96
2022-12-17T21:50:04.772Z,102754.11
2022-12-17T21:52:34.558Z,102751.12
2022-12-17T21:55:05.240Z,102745.37
2022-12-17T21:57:35.108Z,102748.80
2022-12-17T22:00:05.771Z,102748.54
2022-12-17T22:02:35.717Z,102745.39
2022-12-17T22:05:06.060Z,102747.65
2022-12-17T22:07:44.708Z,102753.24
2022-12-17T22:10:29.645Z,102755.84
2022-12-17T22:13:29.291Z,102760.83
2022-12-17T22:15:59.079Z,102762.05
2022-12-17T22:18:28.863Z,102766.55
2022-12-17T22:21:01.009Z,102769.69
2022-12-17T22:23:30.892Z,102775.41
2022-12-17T22:26:01.036Z,102777.73
2022-12-17T22:28:30.753Z,102779.06
2022-12-17T22:31:24.686Z,102773.59
2022-12-17T22:34:25.949Z,102773.30
2022-12-17T22:41:12.599Z,102776.67
2022-12-17T22:44:01.634Z,102779.98
2022-12-17T22:44:44.520Z,102782.51
2022-12-17T22:45:32.301Z,102786.31
2022-12-17T22:48:02.173Z,102790.89
2022-12-17T22:50:33.087Z,102800.79
2022-12-17T22:53:09.988Z,102809.98
2022-12-17T22:55:40.193Z,102817.87
2022-12-17T22:58:10.271Z,102814.23
2022-12-17T23:00:40.358Z,102818.81
2022-12-17T23:03:10.413Z,102814.45
2022-12-17T23:05:40.360Z,102819.96
2022-12-17T23:08:10.264Z,102824.05
2022-12-17T23:10:40.024Z,102825.65
2022-12-17T23:13:09.759Z,102826.88
2022-12-17T23:15:39.501Z,102826.27
2022-12-17T23:18:10.556Z,102822.88
2022-12-17T23:20:40.525Z,102820.89
2022-12-17T23:23:10.306Z,102825.58
2022-12-17T23:25:40.040Z,102825.38
2022-12-17T23:28:09.804Z,102832.11
2022-12-17T23:30:39.609Z,102828.89
2022-12-17T23:33:07.944Z,102828.26
2022-12-17T23:35:36.924Z,102828.64
2022-12-17T23:38:04.897Z,102834.10
2022-12-17T23:40:33.248Z,102830.80
2022-12-17T23:43:01.749Z,102834.55
2022-12-17T23:45:30.125Z,102834.55
2022-12-17T23:47:59.306Z,102835.56
2022-12-17T23:50:27.133Z,102838.34
2022-12-17T23:52:55.448Z,102836.52
2022-12-17T23:55:23.915Z,102836.85
2022-12-17T23:57:56.494Z,102843.14
